Time;durP1;ratioP1;P1;durP2;ratioP2;P2;SDS_P1;SDS_P2;PMS_P1;PMS_P2;Temp;Humidity;BMP_temperature;BMP_pressure;BME280_temperature;BME280_humidity;BME280_pressure;Samples;Min_cycle;Max_cycle;Signal;HPM_P1;HPM_P2
2021/11/24 00:01:23;;;;;;;10.75;3.05;;;;;;;9.35;100.00;101882.91;5051203;28;20043;-65
2021/11/24 00:03:48;;;;;;;8.00;2.85;;;;;;;9.34;100.00;101886.72;5051925;28;20074;-66
2021/11/24 00:06:14;;;;;;;6.35;2.67;;;;;;;9.41;100.00;101883.53;5049331;28;20033;-66
2021/11/24 00:08:40;;;;;;;8.65;3.03;;;;;;;9.38;100.00;101882.28;5050515;28;20033;-66
2021/11/24 00:11:05;;;;;;;7.35;2.38;;;;;;;9.37;100.00;101885.28;5051304;28;20033;-66
2021/11/24 00:13:31;;;;;;;4.60;2.67;;;;;;;9.40;100.00;101885.44;5049645;28;20052;-66
2021/11/24 00:15:57;;;;;;;8.25;2.70;;;;;;;9.38;100.00;101879.59;5052164;28;20040;-66
2021/11/24 00:18:22;;;;;;;7.68;2.83;;;;;;;9.35;100.00;101876.75;5052151;28;20037;-66
2021/11/24 00:20:48;;;;;;;7.15;2.50;;;;;;;9.36;100.00;101873.75;5051352;28;20558;-65
2021/11/24 00:23:14;;;;;;;6.72;2.80;;;;;;;9.34;100.00;101881.34;5050282;28;20491;-66
2021/11/24 00:25:39;;;;;;;8.32;2.53;;;;;;;9.36;100.00;101875.63;5051662;28;20037;-65
2021/11/24 00:28:05;;;;;;;7.00;2.10;;;;;;;9.33;100.00;101881.66;5050690;28;20037;-66
2021/11/24 00:30:30;;;;;;;10.45;2.85;;;;;;;9.34;100.00;101870.59;5047802;28;20039;-65
2021/11/24 00:32:57;;;;;;;8.20;2.40;;;;;;;9.32;100.00;101872.00;5049345;28;20108;-65
2021/11/24 00:35:23;;;;;;;13.02;2.88;;;;;;;9.33;100.00;101877.03;5052080;28;20029;-67
2021/11/24 00:37:48;;;;;;;5.65;2.08;;;;;;;9.28;100.00;101877.22;5052002;28;20037;-66
2021/11/24 00:40:15;;;;;;;10.75;2.17;;;;;;;9.26;100.00;101870.56;5043259;28;20029;-66
2021/11/24 00:42:40;;;;;;;7.20;2.65;;;;;;;9.31;100.00;101873.13;5052099;28;20106;-66
2021/11/24 00:45:06;;;;;;;6.82;2.63;;;;;;;9.26;100.00;101865.19;5052092;28;20041;-66
2021/11/24 00:47:32;;;;;;;6.40;2.72;;;;;;;9.30;100.00;101876.91;5042836;28;20028;-67
2021/11/24 00:49:57;;;;;;;5.75;2.45;;;;;;;9.35;100.00;101871.38;5044524;28;20108;-66
2021/11/24 00:52:23;;;;;;;5.45;2.97;;;;;;;9.37;100.00;101858.41;5051219;28;20047;-70
2021/11/24 00:54:49;;;;;;;4.25;2.10;;;;;;;9.31;100.00;101865.06;5051372;28;20060;-65
2021/11/24 00:57:15;;;;;;;8.13;2.50;;;;;;;9.30;100.00;101860.75;5050768;28;20090;-66
2021/11/24 00:59:40;;;;;;;7.30;2.63;;;;;;;9.29;100.00;101872.63;5045142;28;20033;-66
2021/11/24 01:02:06;;;;;;;6.82;2.50;;;;;;;9.31;100.00;101873.13;5049441;28;20120;-67
2021/11/24 01:04:32;;;;;;;4.75;1.92;;;;;;;9.38;100.00;101859.97;5047673;28;20041;-67
2021/11/24 01:06:57;;;;;;;6.57;2.25;;;;;;;9.31;100.00;101865.06;5049984;28;20033;-66
2021/11/24 01:09:23;;;;;;;8.25;2.60;;;;;;;9.32;100.00;101861.25;5051550;28;20033;-67
2021/11/24 01:11:49;;;;;;;7.13;2.13;;;;;;;9.36;100.00;101862.19;5047758;28;20036;-65
2021/11/24 01:14:14;;;;;;;6.13;2.30;;;;;;;9.34;100.00;101861.72;5051252;28;20044;-66
2021/11/24 01:16:42;;;;;;;4.78;2.10;;;;;;;9.30;100.00;101848.13;5048788;28;20029;-66
2021/11/24 01:19:08;;;;;;;5.68;2.22;;;;;;;9.33;100.00;101857.47;5047693;28;20086;-65
2021/11/24 01:21:33;;;;;;;7.07;2.10;;;;;;;9.33;100.00;101850.16;5044237;28;20033;-66
2021/11/24 01:23:59;;;;;;;7.03;2.78;;;;;;;9.35;100.00;101855.25;5051060;28;20029;-66
2021/11/24 01:26:25;;;;;;;8.88;2.60;;;;;;;9.27;100.00;101846.06;5050451;28;20062;-66
2021/11/24 01:28:50;;;;;;;10.90;2.60;;;;;;;9.24;100.00;101846.69;5047738;28;20550;-66
2021/11/24 01:31:16;;;;;;;10.45;3.00;;;;;;;9.24;100.00;101845.91;5038488;28;20039;-65
2021/11/24 01:33:42;;;;;;;4.30;2.28;;;;;;;9.24;100.00;101851.28;5044092;28;20025;-66
2021/11/24 01:36:07;;;;;;;7.70;2.35;;;;;;;9.23;100.00;101853.19;5049621;28;20559;-67
2021/11/24 01:38:36;;;;;;;5.07;2.63;;;;;;;9.28;100.00;101852.22;5042182;28;20037;-67
2021/11/24 01:41:02;;;;;;;9.23;2.90;;;;;;;9.27;100.00;101846.06;5044832;28;20127;-66
2021/11/24 01:43:31;;;;;;;7.55;3.08;;;;;;;9.30;100.00;101844.63;5047884;28;20550;-67
2021/11/24 01:45:56;;;;;;;9.52;2.58;;;;;;;9.35;100.00;101837.19;5050686;28;20033;-66
2021/11/24 01:48:26;;;;;;;3.63;2.28;;;;;;;9.34;100.00;101827.56;5050667;28;20510;-66
2021/11/24 01:50:52;;;;;;;5.53;2.10;;;;;;;9.31;100.00;101835.47;5049542;28;20047;-66
2021/11/24 01:53:18;;;;;;;9.70;2.83;;;;;;;9.32;100.00;101831.69;5047869;28;20778;-65
2021/11/24 01:55:43;;;;;;;4.57;2.20;;;;;;;9.29;100.00;101832.31;5048804;28;20048;-65
2021/11/24 01:58:09;;;;;;;8.57;2.78;;;;;;;9.26;100.00;101828.34;5045901;28;20044;-66
2021/11/24 02:00:36;;;;;;;6.70;2.22;;;;;;;9.32;100.00;101832.47;5037691;28;20044;-66
2021/11/24 02:03:05;;;;;;;4.78;2.42;;;;;;;9.22;100.00;101824.72;5046214;28;20030;-66
2021/11/24 02:05:33;;;;;;;5.10;2.00;;;;;;;9.29;100.00;101821.56;5044736;28;20033;-67
2021/11/24 02:07:59;;;;;;;6.95;2.75;;;;;;;9.30;100.00;101823.13;5049460;28;20649;-66
2021/11/24 02:10:24;;;;;;;7.85;3.03;;;;;;;9.27;100.00;101826.47;5042137;28;20039;-68
2021/11/24 02:12:51;;;;;;;4.65;2.30;;;;;;;9.28;100.00;101826.16;5049021;28;20059;-66
2021/11/24 02:15:17;;;;;;;5.72;2.80;;;;;;;9.30;100.00;101815.06;5050432;28;20487;-68
2021/11/24 02:17:44;;;;;;;4.40;2.47;;;;;;;9.28;100.00;101812.72;5049929;28;20087;-65
2021/11/24 02:20:34;;;;;;;7.25;2.42;;;;;;;9.36;100.00;101803.06;5044671;28;20134;-66
2021/11/24 02:23:00;;;;;;;6.28;2.35;;;;;;;9.32;100.00;101808.28;5047696;28;20029;-66
2021/11/24 02:25:29;;;;;;;6.47;2.78;;;;;;;9.28;100.00;101809.22;5050541;28;20079;-66
2021/11/24 02:27:54;;;;;;;4.70;2.40;;;;;;;9.28;100.00;101793.91;5046518;28;20033;-65
2021/11/24 02:30:20;;;;;;;5.85;2.50;;;;;;;9.29;100.00;101787.41;5035851;28;20037;-66
2021/11/24 02:32:46;;;;;;;9.25;3.05;;;;;;;9.41;100.00;101781.38;5034987;28;20029;-65
2021/11/24 02:35:11;;;;;;;6.43;3.30;;;;;;;9.27;100.00;101786.16;5052573;28;20074;-65
2021/11/24 02:37:37;;;;;;;5.93;2.50;;;;;;;9.21;100.00;101782.03;5055313;28;20410;-70
2021/11/24 02:40:03;;;;;;;7.53;2.85;;;;;;;9.27;100.00;101783.47;5044710;28;20099;-68
2021/11/24 02:42:29;;;;;;;8.20;2.65;;;;;;;9.29;100.00;101776.66;5049316;28;20384;-65
2021/11/24 02:44:55;;;;;;;7.35;3.15;;;;;;;9.30;100.00;101785.50;5048513;28;20045;-66
2021/11/24 02:47:22;;;;;;;5.03;3.15;;;;;;;9.24;100.00;101778.72;5047530;28;20036;-65
2021/11/24 02:49:55;;;;;;;6.57;2.70;;;;;;;9.30;100.00;101788.19;5046632;28;20074;-66
2021/11/24 02:52:26;;;;;;;7.28;2.35;;;;;;;9.31;100.00;101770.97;5046453;28;20091;-66
2021/11/24 02:54:55;;;;;;;5.85;2.22;;;;;;;9.31;100.00;101768.28;5049937;28;20095;-66
2021/11/24 02:57:30;;;;;;;7.72;3.22;;;;;;;9.25;100.00;101766.88;5045924;28;20059;-66
2021/11/24 02:59:55;;;;;;;7.40;2.65;;;;;;;9.18;100.00;101772.72;5045317;28;20474;-66
2021/11/24 03:02:21;;;;;;;5.30;2.53;;;;;;;9.17;100.00;101767.66;5050030;28;20116;-67
2021/11/24 03:04:46;;;;;;;9.10;3.22;;;;;;;9.30;100.00;101767.50;5046938;28;20053;-67
2021/11/24 03:07:12;;;;;;;5.10;2.35;;;;;;;9.24;100.00;101770.66;5046287;28;20071;-66
2021/11/24 03:09:38;;;;;;;5.80;2.35;;;;;;;9.34;100.00;101768.44;5050138;28;20060;-67
2021/11/24 03:12:04;;;;;;;7.43;3.05;;;;;;;9.37;100.00;101764.34;5049710;28;20021;-67
2021/11/24 03:14:29;;;;;;;9.63;3.90;;;;;;;9.28;100.00;101761.66;5038717;28;20082;-67
2021/11/24 03:16:55;;;;;;;6.22;2.55;;;;;;;9.36;100.00;101758.16;5049477;28;20406;-67
2021/11/24 03:19:21;;;;;;;6.28;3.13;;;;;;;9.35;100.00;101755.78;5048818;28;20037;-66
2021/11/24 03:21:46;;;;;;;6.70;2.95;;;;;;;9.39;100.00;101740.59;5048248;28;20032;-67
2021/11/24 03:24:12;;;;;;;8.32;3.25;;;;;;;9.36;100.00;101746.59;5047401;28;20045;-67
2021/11/24 03:26:37;;;;;;;7.13;2.80;;;;;;;9.36;100.00;101730.47;5050781;28;20029;-67
2021/11/24 03:29:03;;;;;;;8.30;2.83;;;;;;;9.32;100.00;101734.91;5048641;28;20539;-66
2021/11/24 03:31:29;;;;;;;9.38;3.70;;;;;;;9.33;100.00;101739.19;5046141;28;20380;-66
2021/11/24 03:33:55;;;;;;;11.32;3.35;;;;;;;9.32;100.00;101741.09;5040347;28;20039;-66
2021/11/24 03:36:20;;;;;;;10.18;3.90;;;;;;;9.34;100.00;101749.63;5049508;28;20164;-66
2021/11/24 03:38:46;;;;;;;8.43;3.13;;;;;;;9.29;100.00;101738.25;5048682;28;20036;-66
2021/11/24 03:41:11;;;;;;;6.57;2.97;;;;;;;9.31;100.00;101739.50;5051632;28;20102;-66
2021/11/24 03:43:37;;;;;;;8.40;3.75;;;;;;;9.36;100.00;101731.28;5048967;28;20117;-66
2021/11/24 03:46:03;;;;;;;9.90;3.30;;;;;;;9.38;100.00;101731.75;5049610;28;20040;-65
2021/11/24 03:48:28;;;;;;;8.15;3.45;;;;;;;9.32;100.00;101733.03;5046382;28;20025;-65
2021/11/24 03:50:54;;;;;;;6.40;2.80;;;;;;;9.34;100.00;101732.69;5050439;28;20523;-66
2021/11/24 03:53:20;;;;;;;6.25;2.72;;;;;;;9.35;100.00;101729.69;5051289;28;20104;-66
2021/11/24 03:55:46;;;;;;;6.40;3.28;;;;;;;9.31;100.00;101739.50;5049739;28;20139;-65
2021/11/24 03:58:12;;;;;;;8.27;3.47;;;;;;;9.33;100.00;101736.50;5049230;28;20086;-66
2021/11/24 04:00:38;;;;;;;7.38;3.25;;;;;;;9.38;100.00;101728.25;5049800;28;20079;-65
2021/11/24 04:03:06;;;;;;;5.82;2.85;;;;;;;9.32;100.00;101734.91;5033606;28;20637;-66
2021/11/24 04:05:32;;;;;;;5.80;2.58;;;;;;;9.34;100.00;101732.69;5027643;28;20364;-66
2021/11/24 04:08:18;;;;;;;7.50;2.70;;;;;;;9.30;100.00;101737.13;5051932;28;20067;-66
2021/11/24 04:10:44;;;;;;;6.15;2.00;;;;;;;9.35;100.00;101728.91;4951232;29;20137;-66
2021/11/24 04:13:09;;;;;;;7.60;3.15;;;;;;;9.39;100.00;101725.25;4934981;29;20175;-66
2021/11/24 04:15:35;;;;;;;7.47;2.97;;;;;;;9.39;100.00;101727.16;4954743;28;20074;-66
2021/11/24 04:18:01;;;;;;;5.03;2.33;;;;;;;9.37;100.00;101724.78;4954075;28;20039;-66
2021/11/24 04:20:26;;;;;;;5.55;2.40;;;;;;;9.41;100.00;101723.03;4951802;28;20038;-66
2021/11/24 04:22:52;;;;;;;6.78;2.55;;;;;;;9.36;100.00;101723.22;4959425;28;20039;-66
2021/11/24 04:25:18;;;;;;;5.75;2.42;;;;;;;9.32;100.00;101718.78;4949276;28;20054;-66
2021/11/24 04:27:45;;;;;;;4.40;2.22;;;;;;;9.28;100.00;101718.63;4959124;28;20051;-65
2021/11/24 04:30:12;;;;;;;6.15;2.33;;;;;;;9.36;100.00;101717.03;4951147;29;20038;-66
2021/11/24 04:32:37;;;;;;;5.45;2.40;;;;;;;9.40;100.00;101715.28;4951672;29;20031;-66
2021/11/24 04:35:04;;;;;;;7.03;2.40;;;;;;;9.40;100.00;101715.28;4934934;29;20043;-66
2021/11/24 04:37:29;;;;;;;6.65;2.17;;;;;;;9.31;100.00;101717.22;4953392;28;20038;-66
2021/11/24 04:39:55;;;;;;;6.97;2.42;;;;;;;9.32;100.00;101705.34;4961807;28;20762;-66
2021/11/24 04:42:21;;;;;;;8.90;3.13;;;;;;;9.41;100.00;101706.09;4970567;28;20078;-65
2021/11/24 04:44:46;;;;;;;5.45;2.38;;;;;;;9.40;100.00;101709.91;4960827;28;20035;-66
2021/11/24 04:47:15;;;;;;;6.57;2.53;;;;;;;9.37;100.00;101703.28;4977934;28;20421;-66
2021/11/24 04:49:41;;;;;;;5.45;2.60;;;;;;;9.37;100.00;101707.88;5049851;28;20032;-66
2021/11/24 04:52:07;;;;;;;3.97;1.88;;;;;;;9.33;100.00;101704.25;5044995;28;20028;-66
2021/11/24 04:54:32;;;;;;;6.90;2.78;;;;;;;9.40;100.00;101702.66;5050636;28;20063;-66
2021/11/24 04:56:58;;;;;;;9.38;2.97;;;;;;;9.42;100.00;101707.69;5051947;28;20024;-66
2021/11/24 04:59:23;;;;;;;3.65;2.38;;;;;;;9.39;100.00;101698.38;5050441;28;20521;-67
2021/11/24 05:01:49;;;;;;;5.53;2.28;;;;;;;9.33;100.00;101696.19;5050290;28;20033;-66
2021/11/24 05:04:21;;;;;;;6.32;2.67;;;;;;;9.35;100.00;101697.44;5051755;28;20479;-66
2021/11/24 05:06:48;;;;;;;6.00;2.20;;;;;;;9.33;100.00;101698.88;5047522;28;20036;-66
2021/11/24 05:09:13;;;;;;;7.15;2.90;;;;;;;9.36;100.00;101690.97;5051429;28;20502;-66
2021/11/24 05:11:40;;;;;;;7.57;2.58;;;;;;;9.32;100.00;101694.59;5050468;28;20112;-66
2021/11/24 05:14:09;;;;;;;4.88;2.40;;;;;;;9.29;100.00;101701.38;5050988;28;20056;-66
2021/11/24 05:16:36;;;;;;;7.30;2.42;;;;;;;9.38;100.00;101696.00;5051325;28;20475;-66
2021/11/24 05:19:04;;;;;;;6.57;2.92;;;;;;;9.36;100.00;101695.53;5048663;28;20039;-66
2021/11/24 05:21:34;;;;;;;9.77;3.47;;;;;;;9.39;100.00;101689.53;5050025;28;20494;-66
2021/11/24 05:24:01;;;;;;;6.85;2.53;;;;;;;9.46;100.00;101692.50;5047430;28;20485;-66
2021/11/24 05:26:28;;;;;;;7.07;2.58;;;;;;;9.44;100.00;101694.72;5051353;28;20035;-66
2021/11/24 05:28:54;;;;;;;7.47;2.83;;;;;;;9.43;100.00;101685.06;5050877;28;20021;-66
2021/11/24 05:31:20;;;;;;;8.18;3.33;;;;;;;9.40;100.00;101693.78;5049985;28;20194;-66
2021/11/24 05:33:47;;;;;;;9.07;3.88;;;;;;;9.42;100.00;101696.94;5045978;28;20040;-66
2021/11/24 05:36:13;;;;;;;8.55;3.28;;;;;;;9.44;100.00;101690.16;5050054;28;20036;-65
2021/11/24 05:39:05;;;;;;;8.88;3.50;;;;;;;9.50;100.00;101688.88;5050864;28;20057;-66
2021/11/24 05:41:31;;;;;;;7.80;3.13;;;;;;;9.51;100.00;101690.44;5004042;28;20034;-66
2021/11/24 05:44:05;;;;;;;8.88;2.67;;;;;;;9.44;100.00;101692.03;4987998;28;20048;-67
2021/11/24 05:46:54;;;;;;;7.82;3.20;;;;;;;9.39;100.00;101693.00;4973054;28;20042;-68
2021/11/24 05:49:18;;;;;;;5.70;2.75;;;;;;;9.37;100.00;101689.06;5005459;28;20555;-67
2021/11/24 05:51:43;;;;;;;9.23;3.13;;;;;;;9.41;100.00;101687.28;5006958;28;20045;-66
2021/11/24 05:54:09;;;;;;;5.78;1.98;;;;;;;9.43;100.00;101685.06;5007837;28;20037;-67
2021/11/24 05:56:39;;;;;;;5.80;2.60;;;;;;;9.37;100.00;101686.38;5015287;28;20037;-67
2021/11/24 05:59:06;;;;;;;6.40;2.45;;;;;;;9.38;100.00;101679.88;5004018;28;20092;-67
2021/11/24 06:01:32;;;;;;;3.75;2.25;;;;;;;9.40;100.00;101683.84;5005462;28;20044;-67
2021/11/24 06:03:58;;;;;;;6.93;3.20;;;;;;;9.41;100.00;101689.97;5005860;28;20645;-67
2021/11/24 06:06:24;;;;;;;5.72;2.33;;;;;;;9.32;100.00;101684.63;5007039;28;20050;-66
2021/11/24 06:08:50;;;;;;;4.72;2.22;;;;;;;9.33;100.00;101685.44;5007399;28;20033;-68
2021/11/24 06:11:15;;;;;;;4.47;2.20;;;;;;;9.30;100.00;101673.41;5005426;28;20128;-67
2021/11/24 06:13:41;;;;;;;6.53;2.92;;;;;;;9.39;100.00;101673.41;5007266;28;20037;-67
2021/11/24 06:16:07;;;;;;;6.45;2.95;;;;;;;9.38;100.00;101674.50;5004433;28;20100;-67
2021/11/24 06:18:32;;;;;;;9.85;3.15;;;;;;;9.42;100.00;101678.94;5037151;28;20422;-66
2021/11/24 06:20:58;;;;;;;3.83;2.28;;;;;;;9.42;100.00;101681.63;5043204;28;20116;-67
2021/11/24 06:23:23;;;;;;;5.88;2.53;;;;;;;9.36;100.00;101680.22;5048575;28;20049;-68
2021/11/24 06:25:49;;;;;;;7.03;2.85;;;;;;;9.39;100.00;101676.84;5045617;28;20108;-67
2021/11/24 06:28:17;;;;;;;5.57;2.30;;;;;;;9.38;100.00;101685.25;5038342;28;20037;-66
2021/11/24 06:30:43;;;;;;;5.85;2.63;;;;;;;9.36;100.00;101690.97;5038392;28;20149;-66
2021/11/24 06:33:09;;;;;;;10.43;3.55;;;;;;;9.34;100.00;101684.31;5049377;28;20112;-67
2021/11/24 06:35:34;;;;;;;6.85;3.10;;;;;;;9.37;100.00;101679.09;5044565;28;20052;-68
2021/11/24 06:38:00;;;;;;;9.65;3.17;;;;;;;9.41;100.00;101674.66;5043859;28;20029;-67
2021/11/24 06:40:26;;;;;;;7.47;2.83;;;;;;;9.35;100.00;101680.53;5044103;28;20036;-67
2021/11/24 06:42:54;;;;;;;7.35;2.95;;;;;;;9.31;100.00;101679.59;5050478;28;20033;-67
2021/11/24 06:45:20;;;;;;;7.53;2.78;;;;;;;9.30;100.00;101673.41;5050650;28;20048;-67
2021/11/24 06:47:49;;;;;;;10.55;3.55;;;;;;;9.41;100.00;101681.91;5046782;28;20033;-66
2021/11/24 06:50:15;;;;;;;10.48;3.67;;;;;;;9.41;100.00;101671.16;5048289;28;20115;-68
2021/11/24 06:52:41;;;;;;;5.35;2.90;;;;;;;9.34;100.00;101668.19;5049567;28;20399;-68
2021/11/24 06:55:09;;;;;;;6.95;3.92;;;;;;;9.32;100.00;101665.03;5046909;28;20036;-70
2021/11/24 06:57:36;;;;;;;7.72;2.85;;;;;;;9.29;100.00;101676.44;5048734;28;20032;-67
2021/11/24 07:00:05;;;;;;;7.65;3.30;;;;;;;9.34;100.00;101671.66;5045931;28;20116;-68
2021/11/24 07:02:30;;;;;;;8.68;3.65;;;;;;;9.36;100.00;101671.34;5049686;28;20486;-69
2021/11/24 07:04:56;;;;;;;7.55;3.13;;;;;;;9.36;100.00;101676.72;5049963;28;20041;-68
2021/11/24 07:07:21;;;;;;;7.20;3.17;;;;;;;9.28;100.00;101672.16;5046848;28;20041;-69
2021/11/24 07:09:47;;;;;;;7.00;2.65;;;;;;;9.33;100.00;101677.38;5045592;28;20136;-68
2021/11/24 07:12:12;;;;;;;6.50;2.78;;;;;;;9.30;100.00;101672.63;5029688;28;20109;-69
2021/11/24 07:14:38;;;;;;;5.70;2.63;;;;;;;9.36;100.00;101671.34;5045012;28;20024;-68
2021/11/24 07:17:04;;;;;;;6.10;2.15;;;;;;;9.34;100.00;101670.88;5051568;28;20566;-69
2021/11/24 07:19:29;;;;;;;5.35;2.33;;;;;;;9.32;100.00;101665.81;5051356;28;20078;-69
2021/11/24 07:21:55;;;;;;;6.72;2.92;;;;;;;9.33;100.00;101666.63;5052310;28;20033;-69
2021/11/24 07:24:21;;;;;;;6.00;2.38;;;;;;;9.32;100.00;101667.72;5053671;28;20033;-69
2021/11/24 07:26:47;;;;;;;5.75;2.53;;;;;;;9.31;100.00;101663.47;5049877;28;20029;-69
2021/11/24 07:29:14;;;;;;;8.50;3.22;;;;;;;9.37;100.00;101670.25;5051820;28;20039;-68
2021/11/24 07:31:41;;;;;;;10.30;2.90;;;;;;;9.35;100.00;101659.03;5052756;28;20037;-69
2021/11/24 07:34:07;;;;;;;6.20;2.50;;;;;;;9.37;100.00;101678.31;5050503;28;20374;-69
2021/11/24 07:36:33;;;;;;;5.43;2.28;;;;;;;9.36;100.00;101671.34;5049486;28;20564;-67
2021/11/24 07:38:58;;;;;;;4.15;2.30;;;;;;;9.34;100.00;101662.81;5040628;28;20037;-68
2021/11/24 07:41:24;;;;;;;5.55;2.40;;;;;;;9.41;100.00;101673.84;5047554;28;20036;-69
2021/11/24 07:43:50;;;;;;;11.80;3.85;;;;;;;9.41;100.00;101669.25;5052655;28;20048;-68
2021/11/24 07:46:16;;;;;;;10.70;3.72;;;;;;;9.47;100.00;101667.19;5043376;28;20403;-69
2021/11/24 07:48:42;;;;;;;10.13;3.55;;;;;;;9.36;100.00;101669.44;5048854;28;20426;-66
2021/11/24 07:51:09;;;;;;;8.48;2.80;;;;;;;9.40;100.00;101665.00;5046631;28;20040;-66
2021/11/24 07:53:35;;;;;;;6.78;2.58;;;;;;;9.38;100.00;101675.31;5050147;28;20115;-67
2021/11/24 07:56:01;;;;;;;6.05;2.38;;;;;;;9.36;100.00;101663.28;5052574;28;20542;-67
2021/11/24 07:58:26;;;;;;;9.45;3.33;;;;;;;9.42;100.00;101670.88;5043792;28;20069;-67
2021/11/24 08:00:52;;;;;;;7.32;3.40;;;;;;;9.42;100.00;101673.56;5042859;28;20037;-66
2021/11/24 08:03:17;;;;;;;5.85;2.63;;;;;;;9.39;100.00;101665.34;5046069;28;20047;-67
2021/11/24 08:05:43;;;;;;;7.07;2.33;;;;;;;9.41;100.00;101671.94;5046481;28;20028;-67
2021/11/24 08:08:09;;;;;;;6.82;2.33;;;;;;;9.39;100.00;101654.59;5049004;28;20538;-67
2021/11/24 08:10:35;;;;;;;7.07;3.08;;;;;;;9.46;100.00;101661.03;5047130;28;20032;-66
2021/11/24 08:13:00;;;;;;;6.18;3.35;;;;;;;9.45;100.00;101654.06;5048886;28;20048;-66
2021/11/24 08:15:26;;;;;;;4.03;1.77;;;;;;;9.45;100.00;101659.44;5052121;28;20046;-66
2021/11/24 08:17:51;;;;;;;6.60;2.58;;;;;;;9.39;100.00;101668.03;5049699;28;20045;-66
2021/11/24 08:20:17;;;;;;;9.23;3.33;;;;;;;9.51;100.00;101657.38;5044912;28;20037;-66
2021/11/24 08:22:43;;;;;;;6.07;2.33;;;;;;;9.39;100.00;101660.72;5050962;28;20040;-66
2021/11/24 08:25:09;;;;;;;5.70;2.60;;;;;;;9.34;100.00;101660.91;5050448;28;20108;-67
2021/11/24 08:27:35;;;;;;;6.10;2.17;;;;;;;9.38;100.00;101659.16;5049085;28;20665;-66
2021/11/24 08:30:03;;;;;;;6.57;2.55;;;;;;;9.42;100.00;101653.94;5047497;28;20060;-71
2021/11/24 08:32:29;;;;;;;8.32;3.28;;;;;;;9.46;100.00;101654.88;5047703;28;20033;-68
2021/11/24 08:34:54;;;;;;;10.38;3.30;;;;;;;9.53;100.00;101657.84;5035018;28;20086;-66
2021/11/24 08:37:20;;;;;;;11.02;3.03;;;;;;;9.50;100.00;101650.44;5050570;28;20116;-65
2021/11/24 08:39:47;;;;;;;6.95;2.42;;;;;;;9.48;100.00;101650.75;5034268;28;20041;-67
2021/11/24 08:42:13;;;;;;;8.70;3.20;;;;;;;9.54;100.00;101651.38;5041787;28;20029;-67
2021/11/24 08:44:38;;;;;;;5.72;2.08;;;;;;;9.52;100.00;101651.69;5041490;28;20086;-65
2021/11/24 08:47:04;;;;;;;5.07;2.22;;;;;;;9.49;100.00;101648.84;5050857;28;20032;-65
2021/11/24 08:49:30;;;;;;;6.68;2.25;;;;;;;9.55;100.00;101655.63;5051620;28;20036;-65
2021/11/24 08:51:56;;;;;;;6.70;2.47;;;;;;;9.57;100.00;101639.94;5033426;28;20032;-65
2021/11/24 08:54:22;;;;;;;6.80;2.55;;;;;;;9.64;100.00;101640.25;5049138;28;20041;-66
2021/11/24 08:56:49;;;;;;;6.78;3.05;;;;;;;9.65;100.00;101655.25;5050209;28;20037;-67
2021/11/24 08:59:15;;;;;;;5.25;2.10;;;;;;;9.65;100.00;101639.13;5048999;28;20025;-65
2021/11/24 09:01:40;;;;;;;6.47;2.83;;;;;;;9.61;100.00;101651.63;5048390;28;20028;-66
2021/11/24 09:04:06;;;;;;;7.65;2.67;;;;;;;9.65;100.00;101648.00;5049007;28;20033;-66
2021/11/24 09:06:32;;;;;;;7.55;3.20;;;;;;;9.70;100.00;101644.31;5052000;28;20036;-66
2021/11/24 09:08:59;;;;;;;8.00;2.85;;;;;;;9.78;100.00;101646.16;5051290;28;20403;-68
2021/11/24 09:11:24;;;;;;;5.45;2.65;;;;;;;9.76;100.00;101645.72;5042607;28;20036;-68
2021/11/24 09:13:51;;;;;;;9.02;3.15;;;;;;;9.82;100.00;101642.53;5046900;23;21186;-65
2021/11/24 09:16:17;;;;;;;10.35;2.88;;;;;;;9.80;100.00;101643.94;5020405;28;20531;-63
2021/11/24 09:18:43;;;;;;;8.27;2.63;;;;;;;9.84;100.00;101647.56;5023076;28;20033;-64
2021/11/24 09:21:08;;;;;;;6.15;2.33;;;;;;;9.86;100.00;101653.41;5024880;28;20172;-65
2021/11/24 09:23:35;;;;;;;5.05;2.42;;;;;;;9.85;100.00;101646.47;5033023;28;20594;-63
2021/11/24 09:28:30;;;;;;;8.20;2.53;;;;;;;9.82;100.00;101647.91;5041277;28;20043;-63
2021/11/24 09:30:56;;;;;;;6.70;2.30;;;;;;;9.87;100.00;101639.63;5023990;28;20120;-65
2021/11/24 09:33:22;;;;;;;4.80;2.00;;;;;;;9.82;100.00;101642.53;5016602;28;20148;-64
2021/11/24 09:35:48;;;;;;;8.65;3.22;;;;;;;9.91;100.00;101645.19;5039086;28;20025;-63
2021/11/24 09:38:14;;;;;;;10.02;2.42;;;;;;;9.88;100.00;101641.22;5030504;28;20037;-63
2021/11/24 09:40:42;;;;;;;6.22;2.92;;;;;;;9.97;100.00;101636.56;5030632;28;20041;-64
2021/11/24 09:43:12;;;;;;;4.00;2.25;;;;;;;9.90;100.00;101630.94;5044376;28;20041;-64
2021/11/24 09:45:40;;;;;;;4.43;2.10;;;;;;;9.88;100.00;101635.06;5042236;28;20079;-64
2021/11/24 09:48:06;;;;;;;5.68;2.97;;;;;;;9.94;100.00;101629.16;5050740;28;20032;-64
2021/11/24 09:50:35;;;;;;;7.60;2.60;;;;;;;9.86;100.00;101613.84;5031862;28;20051;-64
2021/11/24 09:53:01;;;;;;;8.32;2.70;;;;;;;9.93;100.00;101616.81;5050964;28;20111;-66
2021/11/24 09:55:33;;;;;;;6.70;2.47;;;;;;;9.95;100.00;101603.81;5042266;28;20204;-63
2021/11/24 09:57:59;;;;;;;5.35;2.55;;;;;;;9.94;100.00;101607.63;5032808;28;20498;-64
2021/11/24 10:00:28;;;;;;;7.88;2.90;;;;;;;10.04;100.00;101599.16;5037729;28;20078;-63
2021/11/24 10:02:57;;;;;;;8.27;2.60;;;;;;;10.04;100.00;101601.09;5035024;28;20121;-64
2021/11/24 10:05:28;;;;;;;7.90;2.92;;;;;;;10.06;100.00;101598.06;5028856;28;20024;-63
2021/11/24 10:07:54;;;;;;;8.57;3.47;;;;;;;10.01;100.00;101596.34;5034870;28;20126;-64
2021/11/24 10:10:21;;;;;;;9.25;3.15;;;;;;;10.09;100.00;101595.50;5029726;28;20045;-64
2021/11/24 10:12:47;;;;;;;7.03;3.22;;;;;;;10.10;100.00;101602.50;5029385;28;20037;-64
2021/11/24 10:15:32;;;;;;;7.00;3.10;;;;;;;10.16;100.00;101595.81;5037524;28;20026;-65
2021/11/24 10:18:47;;;;;;;7.90;3.38;;;;;;;10.12;100.00;101588.72;5050430;28;20458;-64
2021/11/24 10:21:15;;;;;;;5.32;2.83;;;;;;;10.12;100.00;101592.19;5045419;28;20053;-63
2021/11/24 10:23:47;;;;;;;6.57;2.75;;;;;;;10.13;100.00;101587.56;5046245;28;20049;-62
2021/11/24 10:26:33;;;;;;;;;;;;;;;10.10;100.00;101578.28;5031726;28;20156;-64
2021/11/24 10:29:14;;;;;;;8.27;2.92;;;;;;;10.15;100.00;101580.75;5045183;28;20322;-64
2021/11/24 10:31:41;;;;;;;6.35;2.63;;;;;;;10.07;100.00;101578.09;5030074;28;20056;-64
2021/11/24 10:34:20;;;;;;;9.43;3.22;;;;;;;10.05;100.00;101573.03;5031004;28;20079;-62
2021/11/24 10:36:48;;;;;;;5.78;2.58;;;;;;;10.15;100.00;101570.00;5025332;28;20033;-62
2021/11/24 10:39:14;;;;;;;7.78;2.80;;;;;;;10.20;100.00;101567.09;5049197;28;20032;-63
2021/11/24 10:41:40;;;;;;;6.88;2.40;;;;;;;10.20;100.00;101556.31;5046296;28;20033;-63
2021/11/24 10:44:09;;;;;;;5.53;2.25;;;;;;;10.14;100.00;101563.06;5042140;28;20033;-66
2021/11/24 10:46:37;;;;;;;7.82;2.75;;;;;;;10.21;100.00;101552.53;5032081;28;20057;-64
2021/11/24 10:49:11;;;;;;;6.75;3.17;;;;;;;10.24;100.00;101554.56;5031609;28;20029;-65
2021/11/24 10:51:39;;;;;;;6.43;3.40;;;;;;;10.28;100.00;101552.00;5051426;28;20037;-65
2021/11/24 10:54:08;;;;;;;8.63;2.90;;;;;;;10.28;100.00;101552.00;5051363;28;20035;-65
2021/11/24 10:56:35;;;;;;;8.63;2.92;;;;;;;10.24;100.00;101549.16;5049117;28;20136;-65
2021/11/24 10:59:17;;;;;;;9.02;3.20;;;;;;;10.23;100.00;101550.31;5047805;28;20025;-65
2021/11/24 11:01:44;;;;;;;7.32;2.58;;;;;;;10.23;100.00;101554.88;5053090;28;20051;-65
2021/11/24 11:04:12;;;;;;;6.55;2.80;;;;;;;10.30;100.00;101547.84;5052082;28;20021;-65
2021/11/24 11:06:38;;;;;;;6.90;2.45;;;;;;;10.22;100.00;101537.19;5053139;28;20133;-65
2021/11/24 11:09:04;;;;;;;8.30;2.85;;;;;;;10.29;100.00;101538.22;5055114;28;20063;-65
2021/11/24 11:11:32;;;;;;;6.40;2.42;;;;;;;10.23;100.00;101533.34;5053513;28;20037;-64
2021/11/24 11:14:14;;;;;;;6.95;2.60;;;;;;;10.29;100.00;101527.44;5034758;28;20395;-64
2021/11/24 11:16:52;;;;;;;6.45;2.58;;;;;;;10.29;100.00;101524.75;5046997;28;20116;-65
2021/11/24 11:19:38;;;;;;;6.38;2.75;;;;;;;10.28;100.00;101523.16;5035359;28;20538;-65
2021/11/24 11:22:06;;;;;;;4.85;2.22;;;;;;;10.39;100.00;101512.78;5034442;28;20576;-64
2021/11/24 11:24:31;;;;;;;6.22;2.53;;;;;;;10.34;100.00;101508.38;5032745;28;20095;-66
2021/11/24 11:26:57;;;;;;;5.03;2.38;;;;;;;10.37;100.00;101513.13;5045053;28;20426;-66